createdAt,value
2023-01-17T00:00:45.407Z,4.60
2023-01-17T00:01:49.502Z,2.80
2023-01-17T00:02:53.180Z,4.20
2023-01-17T00:04:14.176Z,4.20
2023-01-17T00:05:38.100Z,4.30
2023-01-17T00:06:58.857Z,4.30
2023-01-17T00:08:23.776Z,4.30
2023-01-17T00:09:45.333Z,4.30
2023-01-17T00:10:49.167Z,4.30
2023-01-17T00:11:52.025Z,4.40
2023-01-17T00:12:58.149Z,4.40
2023-01-17T00:14:03.818Z,4.40
2023-01-17T00:15:08.692Z,4.30
2023-01-17T00:16:11.302Z,4.40
2023-01-17T00:17:16.815Z,4.30
2023-01-17T00:18:20.381Z,4.30
2023-01-17T00:19:41.799Z,4.30
2023-01-17T00:21:02.586Z,4.30
2023-01-17T00:22:28.425Z,4.20
2023-01-17T00:23:54.038Z,4.20
2023-01-17T00:25:24.401Z,5.00
2023-01-17T00:26:28.809Z,4.30
2023-01-17T00:27:31.834Z,6.30
2023-01-17T00:28:40.292Z,4.30
2023-01-17T00:29:42.832Z,4.40
2023-01-17T00:30:47.527Z,3.60
2023-01-17T00:31:49.875Z,4.60
2023-01-17T00:32:53.756Z,4.50
2023-01-17T00:33:56.550Z,4.50
2023-01-17T00:34:58.805Z,4.50
2023-01-17T00:36:02.206Z,4.60
2023-01-17T00:37:08.669Z,4.60
2023-01-17T00:38:17.503Z,3.90
2023-01-17T00:39:20.927Z,3.70
2023-01-17T00:40:23.311Z,4.50
2023-01-17T00:41:28.708Z,4.60
2023-01-17T00:42:31.003Z,4.50
2023-01-17T00:43:52.067Z,4.50
2023-01-17T00:45:13.697Z,4.40
2023-01-17T00:46:34.992Z,4.40
2023-01-17T00:47:57.000Z,4.40
2023-01-17T00:49:20.776Z,4.40
2023-01-17T00:50:47.350Z,4.50
2023-01-17T00:52:08.693Z,4.60
2023-01-17T00:53:30.036Z,4.60
2023-01-17T00:54:51.031Z,4.70
2023-01-17T00:56:18.980Z,4.60
2023-01-17T00:57:40.271Z,4.60
2023-01-17T00:59:03.330Z,4.60
2023-01-17T01:00:27.931Z,4.50
2023-01-17T01:01:49.973Z,4.60
2023-01-17T01:03:11.986Z,4.50
2023-01-17T01:04:34.411Z,4.50
2023-01-17T01:05:56.612Z,4.40
2023-01-17T01:07:18.341Z,3.30
2023-01-17T01:08:42.136Z,4.50
2023-01-17T01:10:03.288Z,4.50
2023-01-17T01:11:26.661Z,4.50
2023-01-17T01:12:48.382Z,4.50
2023-01-17T01:14:09.947Z,4.50
2023-01-17T01:15:30.643Z,4.50
2023-01-17T01:16:51.722Z,4.40
2023-01-17T01:18:13.589Z,4.40
2023-01-17T01:19:36.939Z,4.30
2023-01-17T01:20:57.843Z,4.40
2023-01-17T01:22:18.597Z,4.50
2023-01-17T01:23:48.314Z,4.50
2023-01-17T01:25:09.470Z,4.60
2023-01-17T01:26:30.275Z,4.50
2023-01-17T01:27:51.347Z,4.60
2023-01-17T01:29:12.845Z,4.60
2023-01-17T01:30:38.774Z,4.60
2023-01-17T01:31:59.790Z,4.60
2023-01-17T01:33:21.072Z,3.90
2023-01-17T01:34:33.275Z,4.70
2023-01-17T01:35:37.665Z,4.70
2023-01-17T01:36:43.695Z,6.50
2023-01-17T01:37:46.385Z,4.70
2023-01-17T01:38:50.375Z,4.80
2023-01-17T01:39:54.838Z,6.40
2023-01-17T01:41:00.660Z,4.80
2023-01-17T01:42:03.207Z,4.80
2023-01-17T01:43:14.924Z,4.80
2023-01-17T01:44:46.781Z,4.80
2023-01-17T01:45:56.375Z,4.80
2023-01-17T01:46:58.845Z,4.70
2023-01-17T01:48:06.785Z,4.70
2023-01-17T01:49:20.789Z,4.70
2023-01-17T01:50:25.097Z,4.70
2023-01-17T01:51:39.108Z,4.80
2023-01-17T01:52:46.937Z,4.80
2023-01-17T01:53:55.707Z,4.80
2023-01-17T01:55:04.479Z,4.90
2023-01-17T01:56:13.762Z,4.90
2023-01-17T01:57:21.853Z,4.80
2023-01-17T01:58:37.644Z,4.10
2023-01-17T01:59:52.390Z,4.80
2023-01-17T02:00:56.237Z,4.90
2023-01-17T02:01:58.916Z,4.80
2023-01-17T02:03:08.501Z,4.80
2023-01-17T02:04:12.656Z,6.50
2023-01-17T02:05:19.233Z,4.80
2023-01-17T02:06:34.865Z,4.80
2023-01-17T02:07:46.789Z,4.90
2023-01-17T02:08:49.595Z,4.90
2023-01-17T02:09:54.230Z,4.80
2023-01-17T02:10:56.779Z,4.90
2023-01-17T02:12:01.532Z,4.10
2023-01-17T02:13:05.785Z,4.80
2023-01-17T02:14:09.571Z,4.80
2023-01-17T02:15:17.395Z,4.80
2023-01-17T02:16:44.460Z,4.80
2023-01-17T02:18:00.478Z,4.70
2023-01-17T02:19:29.755Z,4.70
2023-01-17T02:20:58.803Z,4.70
2023-01-17T02:22:25.102Z,4.70
2023-01-17T02:24:02.483Z,4.70
2023-01-17T02:25:38.660Z,4.70
2023-01-17T02:26:58.638Z,5.50
2023-01-17T02:28:19.018Z,4.30
2023-01-17T02:29:58.841Z,4.70
2023-01-17T02:31:09.801Z,4.80
2023-01-17T02:32:23.196Z,4.70
2023-01-17T02:33:35.409Z,4.80
2023-01-17T02:34:47.936Z,4.70
2023-01-17T02:36:05.538Z,4.70
2023-01-17T02:37:14.979Z,4.80
2023-01-17T02:38:32.515Z,4.70
2023-01-17T02:39:42.833Z,4.70
2023-01-17T02:40:53.347Z,4.80
2023-01-17T02:42:05.737Z,4.80
2023-01-17T02:43:16.526Z,4.90
2023-01-17T02:44:21.955Z,4.80
2023-01-17T02:45:28.355Z,4.80
2023-01-17T02:46:47.228Z,4.80
2023-01-17T02:47:50.890Z,4.70
2023-01-17T02:48:58.902Z,4.80
2023-01-17T02:50:08.710Z,4.80
2023-01-17T02:51:55.401Z,4.80
2023-01-17T02:53:17.864Z,4.80
2023-01-17T02:54:52.338Z,4.80
2023-01-17T02:56:03.678Z,4.80
2023-01-17T02:57:34.470Z,4.80
2023-01-17T02:59:04.533Z,4.80
2023-01-17T03:00:22.444Z,4.80
2023-01-17T03:01:35.523Z,4.90
2023-01-17T03:02:51.168Z,4.80
2023-01-17T03:04:01.852Z,4.80
2023-01-17T03:05:10.875Z,4.50
2023-01-17T03:06:22.145Z,4.90
2023-01-17T03:07:29.714Z,4.90
2023-01-17T03:08:33.933Z,4.90
2023-01-17T03:09:40.873Z,4.90
2023-01-17T03:10:45.693Z,5.00
2023-01-17T03:11:52.218Z,4.90
2023-01-17T03:12:58.611Z,4.90
2023-01-17T03:14:02.154Z,4.80
2023-01-17T03:15:09.198Z,4.80
2023-01-17T03:16:18.580Z,4.80
2023-01-17T03:17:22.560Z,4.90
2023-01-17T03:18:29.691Z,4.80
2023-01-17T03:19:32.397Z,4.90
2023-01-17T03:20:45.157Z,4.90
2023-01-17T03:21:49.479Z,4.90
2023-01-17T03:22:57.490Z,5.00
2023-01-17T03:24:00.274Z,5.00
2023-01-17T03:25:04.046Z,5.70
2023-01-17T03:26:07.242Z,4.30
2023-01-17T03:27:11.028Z,4.90
2023-01-17T03:28:24.688Z,4.90
2023-01-17T03:29:27.392Z,4.90
2023-01-17T03:31:17.666Z,4.90
2023-01-17T03:32:20.556Z,4.80
2023-01-17T03:33:27.175Z,4.80
2023-01-17T03:34:29.720Z,4.80
2023-01-17T03:35:33.196Z,4.80
2023-01-17T03:36:35.709Z,4.70
2023-01-17T03:37:39.319Z,4.70
2023-01-17T03:38:42.096Z,4.70
2023-01-17T03:39:45.500Z,4.70
2023-01-17T03:40:48.296Z,4.70
2023-01-17T03:41:53.538Z,5.00
2023-01-17T03:42:56.606Z,4.60
2023-01-17T03:44:01.980Z,6.40
2023-01-17T03:45:05.455Z,4.60
2023-01-17T03:46:20.791Z,4.60
2023-01-17T03:47:23.505Z,5.70
2023-01-17T03:48:30.186Z,4.70
2023-01-17T03:49:32.889Z,4.70
2023-01-17T03:50:36.423Z,4.70
2023-01-17T03:51:38.925Z,5.20
2023-01-17T03:52:42.449Z,4.70
2023-01-17T03:53:47.067Z,4.70
2023-01-17T03:54:51.110Z,5.00
2023-01-17T03:55:55.886Z,4.70
2023-01-17T03:56:59.427Z,4.70
2023-01-17T03:58:02.721Z,4.70
2023-01-17T03:59:13.074Z,4.90
2023-01-17T04:00:16.436Z,5.80
2023-01-17T04:01:20.347Z,4.60
2023-01-17T04:02:24.362Z,4.60
2023-01-17T04:03:29.318Z,4.60
2023-01-17T04:04:34.030Z,4.60
2023-01-17T04:05:37.438Z,4.60
2023-01-17T04:06:39.951Z,4.60
2023-01-17T04:07:43.782Z,4.70
2023-01-17T04:08:46.210Z,4.70
2023-01-17T04:09:50.230Z,4.70
2023-01-17T04:10:57.961Z,4.70
2023-01-17T04:12:01.959Z,4.70
2023-01-17T04:13:06.476Z,4.70
2023-01-17T04:14:10.122Z,4.60
2023-01-17T04:15:14.845Z,4.70
2023-01-17T04:16:19.973Z,4.70
2023-01-17T04:17:22.601Z,4.70
2023-01-17T04:18:26.587Z,4.60
2023-01-17T04:19:34.271Z,4.60
2023-01-17T04:20:40.668Z,4.70
2023-01-17T04:21:43.410Z,4.70
2023-01-17T04:22:49.256Z,4.70
2023-01-17T04:23:54.317Z,4.70
2023-01-17T04:24:58.342Z,3.00
2023-01-17T04:26:06.438Z,4.70
2023-01-17T04:27:10.617Z,4.70
2023-01-17T04:28:14.608Z,4.90
2023-01-17T04:29:19.924Z,5.10
2023-01-17T04:30:23.673Z,4.60
2023-01-17T04:31:27.513Z,4.70
2023-01-17T04:32:34.382Z,4.70
2023-01-17T04:33:37.300Z,4.60
2023-01-17T04:34:44.121Z,4.50
2023-01-17T04:35:46.562Z,4.60
2023-01-17T04:36:55.709Z,4.60
2023-01-17T04:38:01.996Z,4.60
2023-01-17T04:39:10.449Z,4.60
2023-01-17T04:40:13.867Z,4.60
2023-01-17T04:41:17.368Z,7.10
2023-01-17T04:42:29.814Z,4.70
2023-01-17T04:43:33.654Z,5.80
2023-01-17T04:44:36.061Z,4.80
2023-01-17T04:45:39.974Z,4.80
2023-01-17T04:46:43.605Z,4.80
2023-01-17T04:47:46.239Z,4.80
2023-01-17T04:48:50.164Z,4.80
2023-01-17T04:49:54.047Z,4.80
2023-01-17T04:51:01.153Z,4.70
2023-01-17T04:52:04.946Z,4.80
2023-01-17T04:53:08.514Z,4.70
2023-01-17T04:54:11.042Z,4.70
2023-01-17T04:55:16.970Z,4.60
2023-01-17T04:56:21.166Z,4.50
2023-01-17T04:57:25.295Z,4.50
2023-01-17T04:58:28.751Z,4.60
2023-01-17T04:59:31.277Z,4.60
2023-01-17T05:00:36.516Z,4.60
2023-01-17T05:01:39.071Z,4.50
2023-01-17T05:02:44.944Z,3.70
2023-01-17T05:03:47.573Z,4.50
2023-01-17T05:04:51.751Z,4.50
2023-01-17T05:05:55.944Z,4.60
2023-01-17T05:07:03.835Z,4.60
2023-01-17T05:08:14.134Z,4.50
2023-01-17T05:09:17.647Z,4.60
2023-01-17T05:10:20.327Z,4.60
2023-01-17T05:11:24.010Z,2.70
2023-01-17T05:12:26.683Z,4.70
2023-01-17T05:13:30.536Z,4.60
2023-01-17T05:14:35.824Z,4.70
2023-01-17T05:15:40.370Z,4.60
2023-01-17T05:16:44.822Z,4.30
2023-01-17T05:17:47.253Z,4.50
2023-01-17T05:18:53.739Z,4.50
2023-01-17T05:19:56.502Z,4.60
2023-01-17T05:21:05.328Z,3.60
2023-01-17T05:22:15.365Z,4.50
2023-01-17T05:23:25.514Z,4.50
2023-01-17T05:24:30.505Z,4.50
2023-01-17T05:25:36.015Z,4.40
2023-01-17T05:26:40.778Z,4.40
2023-01-17T05:27:43.213Z,4.40
2023-01-17T05:28:46.792Z,4.40
2023-01-17T05:29:49.507Z,4.50
2023-01-17T05:30:53.937Z,4.40
2023-01-17T05:32:01.762Z,4.40
2023-01-17T05:33:10.820Z,4.40
2023-01-17T05:34:17.413Z,4.40
2023-01-17T05:35:24.463Z,4.20
2023-01-17T05:36:32.653Z,4.30
2023-01-17T05:37:40.493Z,4.20
2023-01-17T05:38:47.451Z,4.30
2023-01-17T05:39:52.029Z,4.30
2023-01-17T05:40:57.054Z,4.20
2023-01-17T05:42:00.031Z,4.20
2023-01-17T05:43:04.648Z,4.30
2023-01-17T05:44:07.288Z,4.20
2023-01-17T05:45:12.549Z,4.20
2023-01-17T05:46:18.114Z,4.20
2023-01-17T05:47:23.012Z,4.40
2023-01-17T05:48:28.921Z,4.20
2023-01-17T05:49:31.377Z,4.80
2023-01-17T05:50:39.297Z,4.10
2023-01-17T05:51:43.373Z,4.10
2023-01-17T05:52:53.115Z,4.10
2023-01-17T05:53:55.905Z,4.20
2023-01-17T05:54:59.398Z,4.20
2023-01-17T05:56:04.214Z,4.20
2023-01-17T05:57:07.736Z,4.20
2023-01-17T05:58:16.444Z,4.30
2023-01-17T05:59:36.663Z,4.30
2023-01-17T06:00:44.096Z,4.30
2023-01-17T06:01:46.475Z,4.30
2023-01-17T06:02:54.388Z,4.50
2023-01-17T06:03:57.313Z,4.30
2023-01-17T06:05:03.284Z,6.20
2023-01-17T06:06:09.518Z,3.90
2023-01-17T06:07:16.388Z,4.30
2023-01-17T06:08:20.027Z,4.20
2023-01-17T06:09:22.425Z,4.20
2023-01-17T06:10:29.548Z,4.20
2023-01-17T06:11:34.331Z,4.20
2023-01-17T06:12:37.722Z,4.20
2023-01-17T06:13:41.463Z,4.30
2023-01-17T06:14:44.107Z,4.10
2023-01-17T06:15:52.578Z,4.10
2023-01-17T06:16:55.202Z,4.10
2023-01-17T06:17:58.963Z,5.20
2023-01-17T06:19:03.078Z,4.10
2023-01-17T06:20:08.303Z,4.10
2023-01-17T06:21:12.274Z,4.20
2023-01-17T06:22:17.327Z,4.20
2023-01-17T06:23:21.601Z,4.20
2023-01-17T06:24:28.551Z,4.20
2023-01-17T06:25:36.563Z,4.20
2023-01-17T06:26:43.411Z,4.20
2023-01-17T06:27:50.508Z,4.30
2023-01-17T06:28:54.038Z,4.20
2023-01-17T06:29:58.431Z,4.20
2023-01-17T06:31:08.082Z,5.70
2023-01-17T06:32:10.914Z,4.20
2023-01-17T06:33:18.916Z,4.10
2023-01-17T06:34:24.531Z,2.40
2023-01-17T06:35:26.930Z,6.10
2023-01-17T06:36:30.564Z,4.10
2023-01-17T06:37:34.485Z,5.20
2023-01-17T06:38:37.817Z,3.90
2023-01-17T06:39:43.259Z,5.90
2023-01-17T06:40:46.761Z,4.00
2023-01-17T06:41:49.692Z,4.00
2023-01-17T06:42:53.362Z,5.50
2023-01-17T06:43:57.725Z,3.90
2023-01-17T06:45:00.266Z,3.90
2023-01-17T06:46:05.001Z,3.90
2023-01-17T06:47:08.475Z,3.80
2023-01-17T06:48:12.366Z,3.80
2023-01-17T06:49:14.995Z,3.30
2023-01-17T06:50:18.815Z,3.80
2023-01-17T06:51:26.398Z,3.80
2023-01-17T06:52:28.953Z,3.40
2023-01-17T06:53:38.143Z,2.00
2023-01-17T06:54:40.685Z,3.90
2023-01-17T06:55:46.394Z,3.80
2023-01-17T06:56:49.507Z,3.90
2023-01-17T06:57:53.266Z,3.90
2023-01-17T06:58:57.195Z,3.90
2023-01-17T07:00:00.931Z,3.90
2023-01-17T07:01:07.176Z,3.80
2023-01-17T07:02:12.373Z,3.90
2023-01-17T07:03:20.368Z,3.90
2023-01-17T07:04:23.970Z,3.90
2023-01-17T07:05:28.581Z,4.00
2023-01-17T07:06:40.599Z,4.00
2023-01-17T07:07:44.184Z,5.50
2023-01-17T07:08:53.644Z,4.10
2023-01-17T07:09:56.499Z,4.20
2023-01-17T07:11:03.025Z,4.20
2023-01-17T07:12:09.334Z,4.30
2023-01-17T07:13:17.341Z,4.40
2023-01-17T07:14:24.322Z,4.50
2023-01-17T07:15:29.667Z,4.70
2023-01-17T07:16:33.556Z,4.70
2023-01-17T07:17:36.225Z,4.80
2023-01-17T07:18:39.828Z,4.90
2023-01-17T07:19:43.247Z,5.00
2023-01-17T07:20:49.813Z,5.20
2023-01-17T07:21:53.798Z,5.10
2023-01-17T07:23:00.601Z,5.20
2023-01-17T07:24:05.474Z,5.10
2023-01-17T07:25:09.638Z,5.30
2023-01-17T07:26:12.297Z,5.40
2023-01-17T07:27:15.776Z,5.60
2023-01-17T07:28:18.594Z,5.80
2023-01-17T07:29:22.066Z,5.90
2023-01-17T07:30:25.049Z,6.00
2023-01-17T07:31:34.531Z,6.10
2023-01-17T07:32:38.085Z,8.00
2023-01-17T07:33:40.729Z,6.20
2023-01-17T07:34:46.381Z,6.20
2023-01-17T07:35:52.327Z,6.20
2023-01-17T07:36:54.828Z,6.30
2023-01-17T07:37:58.751Z,6.20
2023-01-17T07:39:01.764Z,6.30
2023-01-17T07:40:08.040Z,6.30
2023-01-17T07:41:11.558Z,6.40
2023-01-17T07:42:15.613Z,6.50
2023-01-17T07:43:21.588Z,6.60
2023-01-17T07:44:27.749Z,6.70
2023-01-17T07:45:31.582Z,6.90
2023-01-17T07:46:34.952Z,6.80
2023-01-17T07:47:41.535Z,6.90
2023-01-17T07:48:45.491Z,7.00
2023-01-17T07:49:49.761Z,7.10
2023-01-17T07:50:57.696Z,7.10
2023-01-17T07:52:06.414Z,7.10
2023-01-17T07:53:10.363Z,7.20
2023-01-17T07:54:13.442Z,7.20
2023-01-17T07:55:22.264Z,7.20
2023-01-17T07:56:26.075Z,7.30
2023-01-17T07:57:32.618Z,7.30
2023-01-17T07:58:39.561Z,7.30
2023-01-17T07:59:42.338Z,7.30
2023-01-17T08:00:46.184Z,7.40
2023-01-17T08:01:49.130Z,7.40
2023-01-17T08:02:58.666Z,7.40
2023-01-17T08:04:05.616Z,7.60
2023-01-17T08:05:09.065Z,7.50
2023-01-17T08:06:22.547Z,7.50
2023-01-17T08:07:25.608Z,7.50
2023-01-17T08:08:30.094Z,7.50
2023-01-17T08:09:32.589Z,7.60
2023-01-17T08:10:44.738Z,5.80
2023-01-17T08:11:48.232Z,7.70
2023-01-17T08:12:51.270Z,7.60
2023-01-17T08:13:59.341Z,7.50
2023-01-17T08:15:02.648Z,7.40
2023-01-17T08:16:07.110Z,7.20
2023-01-17T08:17:14.522Z,7.20
2023-01-17T08:18:17.291Z,7.00
2023-01-17T08:19:22.490Z,6.90
2023-01-17T08:20:27.827Z,6.90
2023-01-17T08:21:32.083Z,7.00
2023-01-17T08:22:35.069Z,7.10
2023-01-17T08:23:38.768Z,7.10
2023-01-17T08:24:45.263Z,7.00
2023-01-17T08:25:52.027Z,7.00
2023-01-17T08:26:56.382Z,7.00
2023-01-17T08:27:59.908Z,7.10
2023-01-17T08:29:06.435Z,7.00
2023-01-17T08:30:11.168Z,7.00
2023-01-17T08:31:15.007Z,6.90
2023-01-17T08:32:18.104Z,7.00
2023-01-17T08:33:21.506Z,6.90
2023-01-17T08:34:30.995Z,7.00
2023-01-17T08:35:36.345Z,7.10
2023-01-17T08:36:40.232Z,7.00
2023-01-17T08:37:42.717Z,6.90
2023-01-17T08:38:53.017Z,6.90
2023-01-17T08:39:56.488Z,7.40
2023-01-17T08:41:03.971Z,6.90
2023-01-17T08:42:09.089Z,7.10
2023-01-17T08:43:12.038Z,7.00
2023-01-17T08:44:16.063Z,6.80
2023-01-17T08:45:20.006Z,6.80
2023-01-17T08:46:23.077Z,6.60
2023-01-17T08:47:28.112Z,6.60
2023-01-17T08:48:33.793Z,6.60
2023-01-17T08:49:40.246Z,6.70
2023-01-17T08:50:42.822Z,6.10
2023-01-17T08:51:49.502Z,6.70
2023-01-17T08:53:01.385Z,7.20
2023-01-17T08:54:05.540Z,6.60
2023-01-17T08:55:10.363Z,6.60
2023-01-17T08:56:15.378Z,6.50
2023-01-17T08:57:22.564Z,6.50
2023-01-17T08:58:26.295Z,6.50
2023-01-17T08:59:29.838Z,6.40
2023-01-17T09:00:32.701Z,6.40
2023-01-17T09:01:41.108Z,6.30
2023-01-17T09:02:45.475Z,4.80
2023-01-17T09:03:51.493Z,6.10
2023-01-17T09:04:55.515Z,6.10
2023-01-17T09:06:02.540Z,6.20
2023-01-17T09:07:08.910Z,6.10
2023-01-17T09:08:12.449Z,5.50
2023-01-17T09:09:17.267Z,6.10
2023-01-17T09:10:20.910Z,6.10
2023-01-17T09:11:25.841Z,6.10
2023-01-17T09:12:32.486Z,6.10
2023-01-17T09:13:41.820Z,6.10
2023-01-17T09:14:48.305Z,5.80
2023-01-17T09:15:52.776Z,6.20
2023-01-17T09:16:56.217Z,6.20
2023-01-17T09:18:01.395Z,6.20
2023-01-17T09:19:05.056Z,6.20
2023-01-17T09:20:12.885Z,6.20
2023-01-17T09:21:18.833Z,6.20
2023-01-17T09:22:22.515Z,6.20
2023-01-17T09:23:27.273Z,6.10
2023-01-17T09:24:31.296Z,6.20
2023-01-17T09:25:34.162Z,6.20
2023-01-17T09:26:42.330Z,6.20
2023-01-17T09:27:47.999Z,7.70
2023-01-17T09:28:52.508Z,6.10
2023-01-17T09:29:56.143Z,6.00
2023-01-17T09:30:58.560Z,6.00
2023-01-17T09:32:02.373Z,5.90
2023-01-17T09:33:05.920Z,5.80
2023-01-17T09:34:09.615Z,5.80
2023-01-17T09:35:18.435Z,5.80
2023-01-17T09:36:29.279Z,5.80
2023-01-17T09:37:35.988Z,5.80
2023-01-17T09:38:40.289Z,5.80
2023-01-17T09:39:46.396Z,5.90
2023-01-17T09:40:50.722Z,5.90
2023-01-17T09:42:04.694Z,5.90
2023-01-17T09:43:25.177Z,5.50
2023-01-17T09:44:33.403Z,5.80
2023-01-17T09:45:38.012Z,5.70
2023-01-17T09:46:46.506Z,5.70
2023-01-17T09:47:53.539Z,5.70
2023-01-17T09:49:09.409Z,5.70
2023-01-17T09:50:26.462Z,5.70
2023-01-17T09:51:30.240Z,5.70
2023-01-17T09:52:34.464Z,5.80
2023-01-17T09:53:41.734Z,5.70
2023-01-17T09:54:49.386Z,5.70
2023-01-17T09:55:59.354Z,5.70
2023-01-17T09:57:17.483Z,5.70
2023-01-17T09:58:24.114Z,4.60
2023-01-17T09:59:46.595Z,7.60
2023-01-17T10:01:05.934Z,4.90
2023-01-17T10:02:34.436Z,5.80
2023-01-17T10:03:47.650Z,5.80
2023-01-17T10:05:17.442Z,7.50
2023-01-17T10:06:37.259Z,5.70
2023-01-17T10:07:57.442Z,5.70
2023-01-17T10:09:21.326Z,5.70
2023-01-17T10:10:42.116Z,5.70
2023-01-17T10:12:15.108Z,5.60
2023-01-17T10:13:40.270Z,5.60
2023-01-17T10:15:03.150Z,5.40
2023-01-17T10:16:33.089Z,5.40
2023-01-17T10:17:50.278Z,5.40
2023-01-17T10:19:16.485Z,5.40
2023-01-17T10:20:44.017Z,5.50
2023-01-17T10:22:04.353Z,5.50
2023-01-17T10:23:38.353Z,5.60
2023-01-17T10:25:16.352Z,5.70
2023-01-17T10:26:26.209Z,5.70
2023-01-17T10:27:37.762Z,5.70
2023-01-17T10:28:49.164Z,5.80
2023-01-17T10:29:52.162Z,5.80
2023-01-17T10:31:02.826Z,5.70
2023-01-17T10:32:07.443Z,5.70
2023-01-17T10:33:19.183Z,5.80
2023-01-17T10:34:30.532Z,7.80
2023-01-17T10:35:38.979Z,5.80
2023-01-17T10:36:51.395Z,5.80
2023-01-17T10:38:01.985Z,5.80
2023-01-17T10:39:17.209Z,5.80
2023-01-17T10:40:27.493Z,5.80
2023-01-17T10:41:35.890Z,5.80
2023-01-17T10:42:54.639Z,5.80
2023-01-17T10:44:07.194Z,5.80
2023-01-17T10:45:21.073Z,5.70
2023-01-17T10:46:31.528Z,7.90
2023-01-17T10:47:39.588Z,5.80
2023-01-17T10:48:47.080Z,5.80
2023-01-17T10:49:54.676Z,5.80
2023-01-17T10:51:08.300Z,5.80
2023-01-17T10:52:28.179Z,5.70
2023-01-17T10:53:55.083Z,5.70
2023-01-17T10:55:21.805Z,5.70
2023-01-17T10:56:30.066Z,4.60
2023-01-17T10:57:42.644Z,5.80
2023-01-17T10:58:48.307Z,5.90
2023-01-17T10:59:53.235Z,6.00
2023-01-17T11:01:01.392Z,5.90
2023-01-17T11:02:12.251Z,5.90
2023-01-17T11:03:21.682Z,6.30
2023-01-17T11:04:35.182Z,6.00
2023-01-17T11:05:42.977Z,6.00
2023-01-17T11:06:57.842Z,6.00
2023-01-17T11:08:04.157Z,4.70
2023-01-17T11:09:10.895Z,6.10
2023-01-17T11:10:38.013Z,6.20
2023-01-17T11:11:49.308Z,4.70
2023-01-17T11:12:54.945Z,6.10
2023-01-17T11:14:01.922Z,6.10
2023-01-17T11:15:25.949Z,6.00
2023-01-17T11:16:33.283Z,6.60
2023-01-17T11:17:39.172Z,5.80
2023-01-17T11:18:44.385Z,5.50
2023-01-17T11:19:51.515Z,5.80
2023-01-17T11:21:12.282Z,5.80
2023-01-17T11:22:18.717Z,5.90
2023-01-17T11:23:26.793Z,5.80
2023-01-17T11:24:37.377Z,5.70
2023-01-17T11:25:41.158Z,5.80
2023-01-17T11:26:49.890Z,5.60
2023-01-17T11:28:04.325Z,5.70
2023-01-17T11:29:33.746Z,5.70
2023-01-17T11:30:39.101Z,5.60
2023-01-17T11:31:46.677Z,4.70
2023-01-17T11:32:53.945Z,5.70
2023-01-17T11:34:18.556Z,5.70
2023-01-17T11:35:25.659Z,5.90
2023-01-17T11:36:31.985Z,6.00
2023-01-17T11:37:35.264Z,3.90
2023-01-17T11:38:39.046Z,6.00
2023-01-17T11:39:44.442Z,6.10
2023-01-17T11:40:50.746Z,6.30
2023-01-17T11:41:57.087Z,6.50
2023-01-17T11:43:18.821Z,6.50
2023-01-17T11:44:29.905Z,6.60
2023-01-17T11:45:34.746Z,6.80
2023-01-17T11:46:39.117Z,6.80
2023-01-17T11:47:44.176Z,6.90
2023-01-17T11:48:55.871Z,6.90
2023-01-17T11:49:58.744Z,7.10
2023-01-17T11:51:20.256Z,7.20
2023-01-17T11:52:34.068Z,7.10
2023-01-17T11:53:40.610Z,7.20
2023-01-17T11:54:49.129Z,7.20
2023-01-17T11:56:05.768Z,7.10
2023-01-17T11:57:23.124Z,7.20
2023-01-17T11:58:29.753Z,7.00
2023-01-17T11:59:37.591Z,6.90
2023-01-17T12:00:47.921Z,7.00
2023-01-17T12:02:16.769Z,7.10
2023-01-17T12:03:44.984Z,7.20
2023-01-17T12:05:09.206Z,6.40
2023-01-17T12:06:23.777Z,7.50
2023-01-17T12:07:39.667Z,7.60
2023-01-17T12:09:04.745Z,7.70
2023-01-17T12:10:22.380Z,7.70
2023-01-17T12:12:02.024Z,7.70
2023-01-17T12:13:40.065Z,7.80
2023-01-17T12:14:57.933Z,7.60
2023-01-17T12:16:31.196Z,7.40
2023-01-17T12:17:58.732Z,7.30
2023-01-17T12:19:22.910Z,7.20
2023-01-17T12:20:46.205Z,7.10
2023-01-17T12:22:03.111Z,7.00
2023-01-17T12:23:45.386Z,7.30
2023-01-17T12:25:18.777Z,6.80
2023-01-17T12:26:36.393Z,6.60
2023-01-17T12:27:52.194Z,7.10
2023-01-17T12:29:25.949Z,6.40
2023-01-17T12:30:49.582Z,6.30
2023-01-17T12:32:10.214Z,6.30
2023-01-17T12:33:23.046Z,6.20
2023-01-17T12:34:36.096Z,6.10
2023-01-17T12:35:51.026Z,6.00
2023-01-17T12:37:05.071Z,5.90
2023-01-17T12:38:23.671Z,5.90
2023-01-17T12:39:41.069Z,5.90
2023-01-17T12:40:52.605Z,5.90
2023-01-17T12:42:03.871Z,6.00
2023-01-17T12:43:21.475Z,5.90
2023-01-17T12:44:40.546Z,5.90
2023-01-17T12:45:55.780Z,5.90
2023-01-17T12:47:06.030Z,5.90
2023-01-17T12:48:14.072Z,5.90
2023-01-17T12:49:25.888Z,5.90
2023-01-17T12:50:37.102Z,3.90
2023-01-17T12:51:43.822Z,5.80
2023-01-17T12:52:58.768Z,5.80
2023-01-17T12:54:13.876Z,5.70
2023-01-17T12:55:22.559Z,5.80
2023-01-17T12:56:34.307Z,5.70
2023-01-17T12:57:45.498Z,5.60
2023-01-17T12:58:57.332Z,5.60
2023-01-17T13:00:08.384Z,5.40
2023-01-17T13:01:23.144Z,5.50
2023-01-17T13:02:38.671Z,5.60
2023-01-17T13:03:59.675Z,5.60
2023-01-17T13:05:12.707Z,5.70
2023-01-17T13:06:25.888Z,6.10
2023-01-17T13:07:44.076Z,6.10
2023-01-17T13:08:51.915Z,6.00
2023-01-17T13:10:04.154Z,6.00
2023-01-17T13:11:15.655Z,6.00
2023-01-17T13:12:23.897Z,6.00
2023-01-17T13:13:35.792Z,5.90
2023-01-17T13:14:38.363Z,6.00
2023-01-17T13:15:45.293Z,6.00
2023-01-17T13:16:57.985Z,6.00
2023-01-17T13:18:14.420Z,6.00
2023-01-17T13:19:34.887Z,6.90
2023-01-17T13:21:06.519Z,5.90
2023-01-17T13:22:18.101Z,6.00
2023-01-17T13:23:34.575Z,6.10
2023-01-17T13:24:50.878Z,6.00
2023-01-17T13:26:02.078Z,6.10
2023-01-17T13:27:48.772Z,6.10
2023-01-17T13:29:05.282Z,6.10
2023-01-17T13:30:34.625Z,6.20
2023-01-17T13:31:48.362Z,6.20
2023-01-17T13:33:19.968Z,6.20
2023-01-17T13:34:42.121Z,6.30
2023-01-17T13:36:03.105Z,6.10
2023-01-17T13:37:31.097Z,6.40
2023-01-17T13:39:03.898Z,6.50
2023-01-17T13:40:35.198Z,6.50
2023-01-17T13:41:54.029Z,6.40
2023-01-17T13:43:00.630Z,6.40
2023-01-17T13:44:22.643Z,6.30
2023-01-17T13:45:30.189Z,6.30
2023-01-17T13:46:53.307Z,6.30
2023-01-17T13:48:27.804Z,6.00
2023-01-17T13:49:44.095Z,6.40
2023-01-17T13:50:53.038Z,6.50
2023-01-17T13:52:15.245Z,6.50
2023-01-17T13:53:58.021Z,6.50
2023-01-17T13:55:05.431Z,6.50
2023-01-17T13:56:14.713Z,6.60
2023-01-17T13:57:40.036Z,6.50
2023-01-17T13:59:12.668Z,6.50
2023-01-17T14:00:55.155Z,6.50
2023-01-17T14:01:59.089Z,6.40
2023-01-17T14:03:14.454Z,5.00
2023-01-17T14:04:28.008Z,6.30
2023-01-17T14:06:00.855Z,6.20
2023-01-17T14:07:27.284Z,6.10
2023-01-17T14:08:38.844Z,6.10
2023-01-17T14:09:44.767Z,6.10
2023-01-17T14:10:55.841Z,6.20
2023-01-17T14:12:05.098Z,6.20
2023-01-17T14:13:31.779Z,6.30
2023-01-17T14:14:52.170Z,6.20
2023-01-17T14:16:01.397Z,5.10
2023-01-17T14:17:47.226Z,6.00
2023-01-17T14:18:57.245Z,6.20
2023-01-17T14:20:38.564Z,6.30
2023-01-17T14:21:42.929Z,6.30
2023-01-17T14:22:53.509Z,6.30
2023-01-17T14:24:09.376Z,6.30
2023-01-17T14:25:17.796Z,6.30
2023-01-17T14:26:43.390Z,6.30
2023-01-17T14:27:50.664Z,7.10
2023-01-17T14:28:53.971Z,6.40
2023-01-17T14:30:03.244Z,6.30
2023-01-17T14:31:11.049Z,6.30
2023-01-17T14:32:18.770Z,5.20
2023-01-17T14:33:30.084Z,6.20
2023-01-17T14:34:35.905Z,6.30
2023-01-17T14:35:42.326Z,6.20
2023-01-17T14:36:46.118Z,6.20
2023-01-17T14:37:54.533Z,5.10
2023-01-17T14:39:01.724Z,6.10
2023-01-17T14:40:17.954Z,5.50
2023-01-17T14:41:24.959Z,6.10
2023-01-17T14:42:32.020Z,6.10
2023-01-17T14:43:39.959Z,6.10
2023-01-17T14:44:48.390Z,5.40
2023-01-17T14:45:59.906Z,6.10
2023-01-17T14:47:02.420Z,6.10
2023-01-17T14:48:16.426Z,6.10
2023-01-17T14:49:26.583Z,5.10
2023-01-17T14:50:38.088Z,6.00
2023-01-17T14:51:41.716Z,6.00
2023-01-17T14:52:46.379Z,5.90
2023-01-17T14:53:57.738Z,5.90
2023-01-17T14:55:18.486Z,5.90
2023-01-17T14:56:26.946Z,7.90
2023-01-17T14:57:33.163Z,5.90
2023-01-17T14:58:39.395Z,5.90
2023-01-17T14:59:43.408Z,5.90
2023-01-17T15:00:50.113Z,5.90
2023-01-17T15:02:07.621Z,7.30
2023-01-17T15:03:12.171Z,5.90
2023-01-17T15:04:27.234Z,5.90
2023-01-17T15:05:34.451Z,5.90
2023-01-17T15:06:41.825Z,5.90
2023-01-17T15:07:48.728Z,5.90
2023-01-17T15:08:54.080Z,4.50
2023-01-17T15:10:00.901Z,5.80
2023-01-17T15:11:07.587Z,5.80
2023-01-17T15:12:16.700Z,5.80
2023-01-17T15:13:42.771Z,5.80
2023-01-17T15:14:58.531Z,5.80
2023-01-17T15:16:06.995Z,5.40
2023-01-17T15:17:13.122Z,7.00
2023-01-17T15:18:27.180Z,5.90
2023-01-17T15:19:43.722Z,5.90
2023-01-17T15:20:57.264Z,5.90
2023-01-17T15:22:02.326Z,6.10
2023-01-17T15:23:05.740Z,6.00
2023-01-17T15:24:16.985Z,6.00
2023-01-17T15:25:19.703Z,6.10
2023-01-17T15:26:29.195Z,6.00
2023-01-17T15:27:35.370Z,6.00
2023-01-17T15:28:39.730Z,7.00
2023-01-17T15:29:47.902Z,6.10
2023-01-17T15:31:14.497Z,3.90
2023-01-17T15:32:28.253Z,6.00
2023-01-17T15:33:33.657Z,6.00
2023-01-17T15:34:40.103Z,6.00
2023-01-17T15:35:42.778Z,6.00